Time;durP1;ratioP1;P1;durP2;ratioP2;P2;SDS_P1;SDS_P2;PMS_P1;PMS_P2;Temp;Humidity;BMP_temperature;BMP_pressure;BME280_temperature;BME280_humidity;BME280_pressure;Samples;Min_cycle;Max_cycle;Signal;HPM_P1;HPM_P2
2023/08/13 08:25:11;;;;;;;7.50;3.33;;;;;;;20.64;94.36;96914.16;2088732;28;21082;-66
2023/08/13 08:26:13;;;;;;;5.32;3.05;;;;;;;20.65;95.91;96913.19;2082621;28;20193;-66
2023/08/13 08:27:14;;;;;;;6.10;2.85;;;;;;;20.53;96.21;96914.19;2078940;28;20346;-67
2023/08/13 08:28:16;;;;;;;6.47;2.70;;;;;;;20.73;93.88;96915.25;2080003;28;20254;-66
2023/08/13 08:29:18;;;;;;;4.18;2.78;;;;;;;20.73;92.67;96915.25;2083082;28;20207;-66
2023/08/13 08:30:19;;;;;;;4.10;2.50;;;;;;;20.88;93.66;96923.78;2081660;28;20244;-66
2023/08/13 08:31:21;;;;;;;5.82;3.13;;;;;;;20.82;92.85;96903.03;2082386;28;20196;-66
2023/08/13 08:32:22;;;;;;;8.60;3.33;;;;;;;21.24;92.23;96916.34;2091019;28;20830;-66
2023/08/13 08:33:24;;;;;;;6.78;2.92;;;;;;;21.53;89.09;96910.41;2086266;28;20203;-66
2023/08/13 08:34:26;;;;;;;8.75;2.90;;;;;;;21.66;87.41;96913.75;2082201;28;20736;-66
2023/08/13 08:35:31;;;;;;;7.20;2.80;;;;;;;21.84;87.77;96918.47;2081770;28;20411;-66
2023/08/13 08:36:34;;;;;;;5.20;2.88;;;;;;;21.76;87.55;96920.91;2082864;28;20208;-66
2023/08/13 08:37:36;;;;;;;4.28;2.70;;;;;;;21.86;87.47;96919.16;2079417;28;20280;-68
2023/08/13 08:38:38;;;;;;;5.18;3.50;;;;;;;22.05;87.71;96917.56;2082150;28;20193;-68
2023/08/13 08:39:40;;;;;;;4.25;2.80;;;;;;;22.25;87.57;96918.47;2081816;28;20271;-68
2023/08/13 08:40:42;;;;;;;4.65;2.70;;;;;;;22.04;86.16;96910.56;2079160;28;20271;-65
2023/08/13 08:41:47;;;;;;;6.15;2.88;;;;;;;21.78;87.36;96917.16;2079729;28;20197;-65
2023/08/13 08:42:49;;;;;;;6.88;3.38;;;;;;;21.51;89.18;96920.34;2083864;28;20283;-65
2023/08/13 08:43:51;;;;;;;4.20;2.90;;;;;;;21.59;88.50;96917.06;2081992;28;20209;-65
2023/08/13 08:52:54;;;;;;;4.80;2.20;;;;;;;21.39;90.77;96924.03;2083086;28;21111;-65
2023/08/13 08:55:39;;;;;;;6.47;3.47;;;;;;;21.15;90.73;96931.28;2082983;28;20569;-62
2023/08/13 09:07:33;;;;;;;6.32;2.65;;;;;;;20.66;91.64;96909.56;2108824;27;20573;-64
2023/08/13 09:10:04;;;;;;;7.10;3.00;;;;;;;20.76;92.52;96907.06;2100805;27;20553;-64
2023/08/13 09:11:06;;;;;;;8.13;2.90;;;;;;;20.94;94.09;96911.78;2090669;28;20222;-64
2023/08/13 09:12:08;;;;;;;4.82;3.30;;;;;;;20.84;92.28;96906.44;2090751;28;20196;-63
2023/08/13 09:13:09;;;;;;;6.88;3.28;;;;;;;21.07;93.94;96906.34;2088861;28;20298;-64
2023/08/13 09:14:11;;;;;;;6.30;3.38;;;;;;;21.33;92.41;96902.34;2087701;28;20331;-66
2023/08/13 09:15:13;;;;;;;9.50;3.20;;;;;;;21.47;92.34;96898.50;2087193;28;20192;-63
2023/08/13 09:16:15;;;;;;;6.35;2.72;;;;;;;21.79;90.85;96902.06;2080047;28;20234;-64
2023/08/13 09:17:16;;;;;;;4.75;3.28;;;;;;;21.91;88.60;96901.00;2079819;28;20207;-64
2023/08/13 09:18:18;;;;;;;3.97;2.88;;;;;;;22.06;87.42;96897.97;2082008;28;20254;-64
2023/08/13 09:19:23;;;;;;;8.80;3.38;;;;;;;22.20;87.41;96896.78;2082155;28;20293;-63
2023/08/13 09:20:24;;;;;;;4.47;2.70;;;;;;;22.17;87.58;96901.38;2079022;28;20225;-65
2023/08/13 09:21:26;;;;;;;6.25;3.00;;;;;;;22.48;85.79;96895.19;2078400;28;20189;-64
2023/08/13 09:22:33;;;;;;;5.10;3.05;;;;;;;22.50;85.28;96894.06;2075026;28;20233;-65
2023/08/13 09:23:39;;;;;;;7.28;2.80;;;;;;;22.53;85.50;96892.13;2077949;28;20708;-64
2023/08/13 09:24:43;;;;;;;4.00;2.80;;;;;;;22.65;85.09;96897.19;2077799;28;20205;-65
2023/08/13 09:25:45;;;;;;;4.90;2.97;;;;;;;22.22;85.25;96892.13;2078908;28;20221;-65
2023/08/13 09:26:47;;;;;;;5.22;3.00;;;;;;;22.31;86.74;96880.72;2080068;28;20230;-65
2023/08/13 09:27:48;;;;;;;5.07;2.80;;;;;;;22.55;85.38;96885.69;2081205;28;20311;-65
2023/08/13 09:28:50;;;;;;;5.55;2.75;;;;;;;22.80;83.56;96881.66;2082988;28;20781;-64
2023/08/13 09:29:53;;;;;;;7.03;3.50;;;;;;;22.94;83.62;96880.41;2083010;28;20870;-69
2023/08/13 09:30:56;;;;;;;97.20;67.20;;;;;;;23.29;83.72;96880.81;2083190;28;20217;-69
2023/08/13 09:32:00;;;;;;;11.77;7.85;;;;;;;23.20;83.81;96882.50;2078137;28;20197;-68
2023/08/13 09:33:03;;;;;;;6.43;4.18;;;;;;;23.12;81.71;96880.53;2080361;28;20226;-68
2023/08/13 09:34:04;;;;;;;7.38;3.60;;;;;;;23.26;82.77;96881.94;2083427;28;20196;-68
2023/08/13 09:35:06;;;;;;;14.73;11.13;;;;;;;23.28;81.84;96884.44;2079520;28;20716;-68
2023/08/13 09:36:08;;;;;;;6.63;4.05;;;;;;;23.29;80.22;96886.16;2080621;28;20210;-69
2023/08/13 09:37:09;;;;;;;10.02;2.70;;;;;;;23.55;79.91;96875.69;2078269;28;20222;-69
2023/08/13 09:38:11;;;;;;;4.50;2.33;;;;;;;23.68;78.32;96880.72;2081814;28;20237;-65
2023/08/13 09:39:12;;;;;;;7.95;2.40;;;;;;;23.82;78.77;96882.09;2081515;28;20682;-65
2023/08/13 09:40:14;;;;;;;4.90;2.30;;;;;;;24.23;78.99;96879.13;2081946;28;20737;-65
2023/08/13 09:41:17;;;;;;;4.70;1.90;;;;;;;24.89;77.91;96878.00;2080967;28;20198;-65
2023/08/13 09:42:19;;;;;;;4.05;2.08;;;;;;;25.03;77.72;96873.13;2082621;28;20235;-65
2023/08/13 09:43:25;;;;;;;4.22;1.70;;;;;;;25.18;77.40;96884.06;2081834;28;20345;-65
2023/08/13 09:44:28;;;;;;;3.05;1.60;;;;;;;24.56;77.39;96885.66;2080027;28;20197;-65
2023/08/13 09:45:30;;;;;;;3.83;2.00;;;;;;;24.13;78.10;96881.84;2080316;28;20626;-65
2023/08/13 09:46:34;;;;;;;5.95;1.88;;;;;;;24.15;77.57;96873.69;2083713;28;20248;-66
2023/08/13 09:47:40;;;;;;;2.40;1.55;;;;;;;23.71;77.09;96875.09;2082628;28;20223;-66
2023/08/13 09:48:42;;;;;;;4.32;1.70;;;;;;;24.02;79.33;96876.69;2077299;28;20201;-65
2023/08/13 09:49:45;;;;;;;5.47;2.67;;;;;;;24.59;78.27;96863.16;2076008;28;20559;-66
2023/08/13 09:50:49;;;;;;;3.42;2.10;;;;;;;24.54;78.62;96866.28;2076106;28;20225;-66
2023/08/13 09:51:51;;;;;;;4.10;1.95;;;;;;;24.34;77.24;96868.25;2079502;28;20200;-65
2023/08/13 09:52:54;;;;;;;2.47;1.25;;;;;;;24.23;76.25;96863.94;2079603;28;20740;-65
2023/08/13 09:54:04;;;;;;;3.35;1.70;;;;;;;24.61;75.64;96863.88;2080412;28;20624;-66
2023/08/13 09:55:12;;;;;;;3.33;1.60;;;;;;;24.40;77.29;96862.28;2076406;28;20232;-66
2023/08/13 09:56:14;;;;;;;2.63;1.63;;;;;;;24.95;75.71;96865.88;2080984;28;20273;-66
2023/08/13 09:57:17;;;;;;;2.55;1.58;;;;;;;25.25;76.03;96859.28;2078329;28;20197;-66
2023/08/13 09:58:19;;;;;;;4.25;1.42;;;;;;;25.67;74.56;96855.06;2079668;28;20198;-66
2023/08/13 09:59:21;;;;;;;4.65;2.00;;;;;;;25.68;73.20;96850.56;2080039;28;20201;-66
2023/08/13 10:00:23;;;;;;;5.70;2.00;;;;;;;25.45;71.55;96852.94;2079907;28;20421;-66
2023/08/13 10:01:25;;;;;;;3.22;1.88;;;;;;;25.59;73.39;96855.03;2078916;28;20198;-66
2023/08/13 10:02:28;;;;;;;3.03;1.60;;;;;;;25.99;73.50;96852.72;2080208;28;20772;-67
2023/08/13 10:03:31;;;;;;;3.30;1.65;;;;;;;25.37;75.35;96846.53;2077341;28;20197;-66
2023/08/13 10:04:35;;;;;;;4.47;2.03;;;;;;;25.37;76.13;96849.19;2077664;28;20559;-67
2023/08/13 10:05:38;;;;;;;4.80;1.75;;;;;;;24.85;74.71;96860.63;2078008;28;20255;-66
2023/08/13 10:06:40;;;;;;;7.72;1.90;;;;;;;24.97;75.47;96857.72;2077367;28;20626;-67
2023/08/13 10:07:41;;;;;;;3.55;1.63;;;;;;;25.72;72.81;96862.59;2077867;28;20206;-67
2023/08/13 10:08:43;;;;;;;5.80;1.80;;;;;;;25.63;72.00;96863.56;2079716;28;20197;-67
2023/08/13 10:09:46;;;;;;;5.47;2.17;;;;;;;25.95;73.09;96860.22;2079491;28;20240;-67
2023/08/13 10:11:02;;;;;;;2.85;1.75;;;;;;;25.75;73.15;96863.13;2078151;28;20627;-67
2023/08/13 10:12:09;;;;;;;3.95;1.67;;;;;;;25.72;73.02;96859.94;2081418;28;20208;-67
2023/08/13 10:13:11;;;;;;;3.63;1.50;;;;;;;26.15;73.47;96854.66;2078287;28;20194;-67
2023/08/13 10:14:13;;;;;;;6.50;1.67;;;;;;;26.10;72.92;96859.66;2077589;28;20193;-67
2023/08/13 10:15:15;;;;;;;5.32;2.03;;;;;;;26.04;72.97;96863.75;2075812;28;20221;-67
2023/08/13 10:16:17;;;;;;;2.35;1.80;;;;;;;25.71;72.67;96863.59;2077592;28;20205;-67
2023/08/13 10:17:19;;;;;;;4.95;2.20;;;;;;;25.00;74.13;96863.59;2079014;28;20284;-67
2023/08/13 10:18:22;;;;;;;4.18;2.05;;;;;;;25.44;74.37;96862.78;2083851;28;20213;-67
2023/08/13 10:19:28;;;;;;;4.85;2.08;;;;;;;25.48;73.36;96863.31;2079838;28;20202;-67
2023/08/13 10:20:30;;;;;;;7.57;2.30;;;;;;;25.23;73.58;96855.06;2080468;28;20649;-67
2023/08/13 10:21:35;;;;;;;7.22;2.00;;;;;;;25.84;72.55;96861.34;2073861;28;20198;-67
2023/08/13 10:22:38;;;;;;;6.00;2.15;;;;;;;24.81;74.85;96856.59;2072562;28;20284;-67
2023/08/13 10:23:40;;;;;;;2.70;1.88;;;;;;;25.12;74.88;96861.50;2072743;28;20198;-67
2023/08/13 10:24:42;;;;;;;4.80;2.40;;;;;;;25.15;75.49;96863.03;2072184;28;20220;-67
2023/08/13 10:25:44;;;;;;;3.85;1.90;;;;;;;25.06;74.75;96867.47;2067873;28;20582;-67
2023/08/13 10:26:46;;;;;;;3.53;2.50;;;;;;;24.92;75.88;96851.00;2074933;28;20210;-67
2023/08/13 10:27:52;;;;;;;3.08;1.90;;;;;;;24.57;77.58;96849.97;2076986;28;20256;-67
2023/08/13 10:28:54;;;;;;;2.83;1.60;;;;;;;24.58;77.50;96857.00;2074338;28;20259;-67
2023/08/13 10:30:09;;;;;;;3.88;2.05;;;;;;;25.00;76.85;96855.59;2072314;28;20701;-67
2023/08/13 10:31:31;;;;;;;4.80;1.90;;;;;;;24.99;77.23;96853.03;2073637;28;20613;-67
2023/08/13 10:32:37;;;;;;;2.80;1.67;;;;;;;24.60;77.71;96847.00;2073176;28;20205;-67
2023/08/13 10:33:39;;;;;;;2.92;1.88;;;;;;;24.86;76.22;96856.09;2072604;28;20208;-67
2023/08/13 10:34:47;;;;;;;2.80;1.75;;;;;;;24.88;76.33;96862.97;2070833;28;20205;-67
2023/08/13 10:35:58;;;;;;;9.55;1.98;;;;;;;25.06;75.87;96857.59;2069280;28;20226;-67
2023/08/13 10:36:59;;;;;;;3.03;1.75;;;;;;;24.99;77.31;96861.91;2072055;28;20221;-67
2023/08/13 10:38:02;;;;;;;6.50;2.22;;;;;;;24.84;78.06;96856.25;2073007;28;20293;-67
2023/08/13 10:39:32;;;;;;;3.55;2.08;;;;;;;24.86;77.94;96859.63;2073139;28;20360;-67
2023/08/13 10:40:34;;;;;;;3.13;1.80;;;;;;;24.52;77.15;96849.59;2074804;28;20209;-67
2023/08/13 10:41:36;;;;;;;5.18;2.25;;;;;;;24.52;78.38;96857.59;2078554;28;20250;-67
2023/08/13 10:42:37;;;;;;;6.38;2.83;;;;;;;24.23;77.80;96857.78;2075979;28;20201;-67
2023/08/13 10:43:39;;;;;;;5.20;1.80;;;;;;;24.01;79.65;96849.19;2069017;28;20205;-67
2023/08/13 10:46:10;;;;;;;3.85;2.38;;;;;;;23.76;80.67;96848.84;2109317;27;20576;-65
2023/08/13 10:47:13;;;;;;;3.03;1.83;;;;;;;23.76;81.21;96845.34;2104385;28;20202;-66
2023/08/13 10:49:56;;;;;;;3.45;2.08;;;;;;;23.97;81.21;96850.47;2095613;27;20565;-65
2023/08/13 10:50:58;;;;;;;3.20;2.10;;;;;;;24.01;81.08;96854.53;2083083;28;20247;-65
2023/08/13 10:52:03;;;;;;;4.60;2.35;;;;;;;24.04;81.16;96858.72;2082649;28;20193;-66
2023/08/13 10:53:11;;;;;;;4.00;2.35;;;;;;;23.83;80.08;96858.91;2082092;28;21131;-67
2023/08/13 10:54:13;;;;;;;3.90;2.25;;;;;;;24.03;80.44;96865.03;2081701;28;20266;-67
2023/08/13 10:55:27;;;;;;;4.70;1.90;;;;;;;24.14;79.07;96864.84;2083200;28;20232;-67
2023/08/13 10:56:29;;;;;;;5.95;2.40;;;;;;;24.06;79.06;96854.06;2082293;28;20250;-67
2023/08/13 10:57:31;;;;;;;5.32;2.08;;;;;;;24.03;79.68;96849.88;2078982;28;20259;-67
2023/08/13 10:58:35;;;;;;;5.53;2.40;;;;;;;24.26;79.56;96857.47;2082853;28;20207;-67
2023/08/13 10:59:39;;;;;;;5.85;2.10;;;;;;;24.50;79.28;96859.56;2083312;28;20197;-67
2023/08/13 11:00:43;;;;;;;5.32;2.35;;;;;;;24.40;77.21;96858.78;2080765;28;20315;-67
2023/08/13 11:02:18;;;;;;;5.22;2.20;;;;;;;24.49;76.39;96857.88;2081446;28;20286;-67
2023/08/13 11:03:28;;;;;;;4.03;1.98;;;;;;;24.77;75.64;96858.72;2082513;28;20232;-66
2023/08/13 11:04:30;;;;;;;5.00;2.60;;;;;;;24.98;74.88;96857.56;2082144;28;20237;-67
2023/08/13 11:05:32;;;;;;;4.03;2.75;;;;;;;25.41;73.75;96855.91;2078517;28;20247;-67
2023/08/13 11:06:35;;;;;;;4.50;2.15;;;;;;;25.72;73.06;96855.41;2080140;28;20247;-67
2023/08/13 11:07:37;;;;;;;3.72;2.25;;;;;;;26.09;72.22;96858.78;2084168;28;20613;-67
2023/08/13 11:08:40;;;;;;;3.60;1.85;;;;;;;25.97;71.66;96858.22;2083497;28;20376;-67
2023/08/13 11:09:48;;;;;;;3.28;1.70;;;;;;;26.08;72.47;96857.97;2082176;28;20224;-66
2023/08/13 11:10:51;;;;;;;3.05;1.88;;;;;;;26.28;71.46;96867.56;2084879;28;20247;-66
2023/08/13 11:11:54;;;;;;;3.33;1.80;;;;;;;26.14;71.89;96859.16;2082030;28;20193;-67
2023/08/13 11:12:56;;;;;;;4.13;2.35;;;;;;;25.81;71.69;96866.16;2080994;28;20235;-67
2023/08/13 11:13:57;;;;;;;4.40;1.65;;;;;;;25.83;73.24;96872.22;2080904;28;20212;-67
2023/08/13 11:15:02;;;;;;;6.55;2.00;;;;;;;25.75;72.12;96871.16;2082125;28;20190;-67
2023/08/13 11:16:04;;;;;;;7.90;2.40;;;;;;;25.81;72.78;96868.84;2082400;28;20193;-67
2023/08/13 11:17:05;;;;;;;3.17;2.00;;;;;;;26.15;71.25;96865.34;2080499;28;20246;-67
2023/08/13 11:18:07;;;;;;;6.80;2.65;;;;;;;26.46;71.27;96860.28;2078725;28;20189;-66
2023/08/13 11:19:08;;;;;;;6.32;2.45;;;;;;;26.72;70.92;96862.00;2079896;28;20201;-67
2023/08/13 11:20:10;;;;;;;6.03;2.03;;;;;;;26.78;70.78;96857.84;2081912;28;20702;-67
2023/08/13 11:21:12;;;;;;;3.95;1.73;;;;;;;27.37;69.54;96855.81;2082600;28;20553;-67
2023/08/13 11:22:16;;;;;;;5.00;2.20;;;;;;;27.73;68.81;96862.69;2082210;28;20208;-67
2023/08/13 11:23:20;;;;;;;4.18;2.25;;;;;;;27.65;68.18;96862.69;2081817;28;20265;-67
2023/08/13 11:24:22;;;;;;;3.67;2.10;;;;;;;27.99;68.12;96862.41;2082473;28;20262;-68
2023/08/13 11:25:26;;;;;;;5.95;2.15;;;;;;;28.12;68.80;96859.22;2081712;28;20244;-68
2023/08/13 11:26:29;;;;;;;4.75;2.10;;;;;;;28.71;67.38;96859.78;2081418;28;20194;-68
2023/08/13 11:27:31;;;;;;;6.85;2.00;;;;;;;28.08;66.50;96855.22;2082009;28;20247;-66
2023/08/13 11:28:32;;;;;;;4.93;1.77;;;;;;;28.06;67.72;96854.56;2081137;28;20688;-66
2023/08/13 11:29:34;;;;;;;3.27;1.80;;;;;;;28.03;67.98;96849.53;2081284;28;20506;-67
2023/08/13 11:30:40;;;;;;;3.03;1.60;;;;;;;28.09;68.15;96864.94;2082566;28;20923;-67
2023/08/13 11:31:45;;;;;;;2.37;1.40;;;;;;;27.75;67.53;96868.69;2082476;28;20425;-67
2023/08/13 11:32:47;;;;;;;2.87;1.70;;;;;;;27.40;69.04;96869.94;2082365;28;20433;-67
2023/08/13 11:33:49;;;;;;;4.20;2.10;;;;;;;27.16;70.39;96872.44;2074993;28;20459;-67
2023/08/13 11:34:51;;;;;;;6.50;1.80;;;;;;;26.56;71.78;96860.13;2082851;28;20437;-66
2023/08/13 11:35:53;;;;;;;5.00;1.70;;;;;;;26.10;72.49;96868.50;2078591;28;21001;-66
2023/08/13 11:36:56;;;;;;;4.13;1.73;;;;;;;25.68;74.58;96859.41;2080230;28;20427;-66
2023/08/13 11:37:58;;;;;;;4.00;1.97;;;;;;;25.37;75.64;96853.69;2078771;28;20430;-66
2023/08/13 11:39:01;;;;;;;3.80;1.80;;;;;;;25.72;74.05;96852.75;2079083;28;20423;-67
2023/08/13 11:40:10;;;;;;;4.40;2.20;;;;;;;25.67;73.65;96859.56;2081799;28;20437;-68
2023/08/13 11:41:12;;;;;;;3.65;1.40;;;;;;;25.72;75.01;96849.25;2082809;28;20513;-68
2023/08/13 11:42:14;;;;;;;5.35;2.30;;;;;;;25.56;75.60;96856.19;2082994;28;20253;-67
2023/08/13 11:43:18;;;;;;;4.00;2.13;;;;;;;25.69;76.04;96855.75;2082940;28;20239;-67
2023/08/13 11:44:20;;;;;;;4.72;1.75;;;;;;;25.60;76.31;96848.69;2083204;28;20201;-67
2023/08/13 11:45:23;;;;;;;3.20;2.05;;;;;;;25.94;75.28;96852.34;2081882;28;20259;-68
2023/08/13 11:46:25;;;;;;;6.30;2.42;;;;;;;26.04;73.91;96855.72;2082213;28;20395;-68
2023/08/13 11:47:27;;;;;;;3.47;1.90;;;;;;;26.27;73.59;96857.88;2082566;28;20205;-68
2023/08/13 11:48:30;;;;;;;2.50;1.60;;;;;;;26.18;73.92;96852.50;2082280;28;20749;-68
2023/08/13 11:49:42;;;;;;;6.28;2.40;;;;;;;26.69;72.28;96857.81;2078938;28;20328;-68
2023/08/13 11:51:07;;;;;;;3.63;2.20;;;;;;;27.08;71.07;96851.00;2079165;28;20243;-68
2023/08/13 11:52:21;;;;;;;3.28;1.88;;;;;;;26.97;71.20;96844.13;2082402;28;20197;-68
2023/08/13 11:53:23;;;;;;;5.78;2.08;;;;;;;27.00;70.22;96851.81;2081232;28;20200;-68
2023/08/13 11:54:24;;;;;;;2.97;1.80;;;;;;;27.80;68.42;96852.09;2081441;28;20224;-68
2023/08/13 11:55:26;;;;;;;3.38;2.10;;;;;;;28.54;67.16;96848.28;2079945;28;20279;-68
2023/08/13 11:56:28;;;;;;;3.55;1.80;;;;;;;28.67;66.61;96845.84;2078780;28;20193;-68
2023/08/13 11:57:29;;;;;;;3.67;2.13;;;;;;;28.66;65.15;96839.66;2080392;28;20197;-68
2023/08/13 11:58:31;;;;;;;3.63;1.70;;;;;;;28.88;64.98;96844.41;2084530;28;20250;-68
2023/08/13 11:59:33;;;;;;;5.83;2.10;;;;;;;28.85;65.21;96842.91;2081957;28;20430;-68
2023/08/13 12:00:35;;;;;;;3.40;1.80;;;;;;;28.72;65.46;96839.97;2079969;28;20541;-68
2023/08/13 12:01:37;;;;;;;4.33;1.90;;;;;;;28.89;64.05;96832.63;2075676;28;20518;-68
2023/08/13 12:02:39;;;;;;;4.07;1.73;;;;;;;29.44;62.42;96836.03;2080494;28;20430;-68
2023/08/13 12:03:43;;;;;;;6.40;1.40;;;;;;;29.66;63.39;96828.91;2080521;28;20430;-68
2023/08/13 12:04:47;;;;;;;3.27;1.47;;;;;;;29.44;61.52;96834.16;2076188;28;20462;-68
2023/08/13 12:05:51;;;;;;;4.00;1.70;;;;;;;29.11;61.86;96823.69;2075799;28;20459;-68
2023/08/13 12:06:53;;;;;;;2.80;1.50;;;;;;;29.33;62.54;96821.16;2077498;28;20470;-68
2023/08/13 12:07:59;;;;;;;2.57;1.80;;;;;;;29.72;60.45;96828.16;2076826;28;21047;-68
2023/08/13 12:09:03;;;;;;;3.13;1.50;;;;;;;29.44;61.44;96823.41;2076417;28;20810;-68
2023/08/13 12:10:05;;;;;;;6.67;1.57;;;;;;;30.07;60.48;96830.34;2075336;28;20458;-68
2023/08/13 12:11:07;;;;;;;3.53;1.97;;;;;;;30.39;59.67;96837.13;2076245;28;20423;-68
2023/08/13 12:12:08;;;;;;;5.00;1.90;;;;;;;30.67;58.68;96824.81;2080401;28;20422;-68
2023/08/13 12:13:10;;;;;;;3.13;1.40;;;;;;;30.32;59.07;96833.50;2080677;28;20521;-68
2023/08/13 12:14:11;;;;;;;1.97;1.53;;;;;;;30.01;60.27;96833.78;2076120;28;20434;-68
2023/08/13 12:15:13;;;;;;;4.33;1.80;;;;;;;29.08;61.46;96836.69;2074914;28;20426;-68
2023/08/13 12:16:15;;;;;;;5.73;1.43;;;;;;;29.42;59.54;96830.84;2077603;28;20720;-68
2023/08/13 12:17:16;;;;;;;2.90;1.50;;;;;;;29.39;60.12;96831.19;2077441;28;20476;-68
2023/08/13 12:18:18;;;;;;;2.23;1.20;;;;;;;28.81;61.15;96831.69;2077466;28;20434;-68
2023/08/13 12:19:20;;;;;;;3.17;1.80;;;;;;;28.71;61.03;96822.16;2076691;28;20454;-68
2023/08/13 12:20:22;;;;;;;3.73;2.07;;;;;;;28.42;61.82;96821.00;2072645;28;20469;-68
2023/08/13 12:21:24;;;;;;;3.77;1.60;;;;;;;28.91;61.83;96815.31;2074076;28;20457;-68
2023/08/13 12:22:25;;;;;;;2.67;1.47;;;;;;;28.72;62.25;96815.78;2077058;28;20431;-68
2023/08/13 12:23:27;;;;;;;3.27;1.53;;;;;;;28.13;62.90;96807.22;2076865;28;20476;-67
2023/08/13 12:24:28;;;;;;;4.07;2.00;;;;;;;27.47;65.37;96803.91;2077425;28;20465;-68
2023/08/13 12:25:29;;;;;;;2.70;1.57;;;;;;;28.07;64.93;96805.22;2077559;28;20462;-67
2023/08/13 12:26:32;;;;;;;3.63;1.77;;;;;;;28.81;63.30;96806.63;2076102;28;20827;-68
2023/08/13 12:27:34;;;;;;;4.70;1.90;;;;;;;29.14;62.22;96809.06;2079213;28;20827;-68
2023/08/13 12:28:35;;;;;;;3.50;1.60;;;;;;;29.58;60.91;96807.47;2074639;28;20500;-68
2023/08/13 12:29:37;;;;;;;2.83;1.60;;;;;;;29.59;60.64;96819.91;2076982;28;20487;-68
2023/08/13 12:30:38;;;;;;;5.93;1.90;;;;;;;29.65;60.05;96814.63;2075655;28;20628;-68
2023/08/13 12:31:40;;;;;;;3.13;1.43;;;;;;;29.41;59.62;96817.59;2075904;28;20423;-68
2023/08/13 12:32:41;;;;;;;2.80;1.50;;;;;;;29.89;57.48;96815.41;2074165;28;20530;-68
2023/08/13 12:33:43;;;;;;;2.37;1.97;;;;;;;30.39;57.54;96817.47;2073934;28;20922;-68
2023/08/13 12:34:44;;;;;;;2.30;1.57;;;;;;;30.37;57.26;96822.19;2074336;28;20510;-68
2023/08/13 12:35:46;;;;;;;4.30;1.40;;;;;;;29.81;57.93;96815.47;2077428;28;20807;-68
2023/08/13 12:36:48;;;;;;;3.43;1.70;;;;;;;30.33;57.87;96812.81;2077701;28;20438;-68
2023/08/13 12:37:49;;;;;;;4.23;1.60;;;;;;;30.45;56.69;96808.63;2075316;28;20439;-68
2023/08/13 12:38:51;;;;;;;2.43;1.63;;;;;;;30.16;57.47;96815.75;2072945;28;20924;-68
2023/08/13 12:39:52;;;;;;;2.60;1.70;;;;;;;30.32;57.75;96821.91;2073808;28;20993;-68
2023/08/13 12:40:54;;;;;;;3.37;1.70;;;;;;;30.65;56.81;96811.53;2072340;28;20455;-68
2023/08/13 12:41:55;;;;;;;3.33;1.53;;;;;;;30.23;57.35;96813.13;2074208;28;20431;-68
2023/08/13 12:42:57;;;;;;;5.13;1.67;;;;;;;30.15;58.95;96813.25;2072518;28;20435;-67
2023/08/13 12:43:58;;;;;;;3.83;1.97;;;;;;;30.80;56.62;96816.03;2073159;28;20473;-68
2023/08/13 12:45:00;;;;;;;2.77;1.80;;;;;;;29.91;56.99;96807.97;2075843;28;20525;-67
2023/08/13 12:46:03;;;;;;;5.30;1.60;;;;;;;30.66;56.91;96810.50;2075891;28;20450;-68
2023/08/13 12:47:04;;;;;;;4.83;2.00;;;;;;;31.07;56.23;96811.75;2076908;28;20421;-67
2023/08/13 12:48:06;;;;;;;3.00;1.33;;;;;;;30.82;55.69;96816.66;2076896;28;20886;-68
2023/08/13 12:49:08;;;;;;;2.20;1.20;;;;;;;29.73;58.13;96807.50;2077587;28;20445;-68
2023/08/13 12:50:09;;;;;;;3.93;1.73;;;;;;;29.45;59.16;96811.63;2075882;28;20438;-68
2023/08/13 12:51:11;;;;;;;4.50;1.90;;;;;;;29.77;58.80;96809.59;2076161;28;20767;-67
2023/08/13 12:52:12;;;;;;;2.80;1.53;;;;;;;30.28;57.56;96811.53;2076448;28;20426;-68
2023/08/13 12:53:14;;;;;;;1.90;1.20;;;;;;;29.35;57.53;96802.19;2075618;28;20441;-68
2023/08/13 12:54:15;;;;;;;3.53;1.60;;;;;;;30.05;56.51;96808.97;2076353;28;20496;-67
2023/08/13 12:55:17;;;;;;;5.93;1.67;;;;;;;30.49;55.90;96806.38;2079086;28;20536;-68
2023/08/13 12:56:19;;;;;;;4.10;1.20;;;;;;;30.55;55.55;96802.94;2080673;28;20426;-68
2023/08/13 12:57:20;;;;;;;1.63;1.20;;;;;;;30.40;55.40;96795.72;2077890;28;20438;-68
2023/08/13 12:58:22;;;;;;;3.27;1.67;;;;;;;30.74;55.25;96796.06;2078137;28;20509;-68
2023/08/13 12:59:24;;;;;;;3.63;1.50;;;;;;;30.91;54.37;96793.97;2075381;28;20514;-68
2023/08/13 13:00:25;;;;;;;1.80;1.10;;;;;;;31.26;54.82;96789.50;2072083;28;20447;-68
2023/08/13 13:01:26;;;;;;;3.67;1.30;;;;;;;30.33;56.91;96786.72;2073071;28;20763;-68
2023/08/13 13:02:28;;;;;;;3.03;1.50;;;;;;;31.31;56.09;96790.78;2074741;28;20447;-67
2023/08/13 13:03:30;;;;;;;2.77;1.50;;;;;;;30.86;55.49;96780.22;2075717;28;20460;-68
2023/08/13 13:04:32;;;;;;;2.80;1.53;;;;;;;31.41;55.40;96772.38;2075765;28;20763;-68
2023/08/13 13:05:34;;;;;;;4.40;1.60;;;;;;;30.57;56.49;96765.88;2074122;28;20454;-68
2023/08/13 13:06:35;;;;;;;2.60;1.60;;;;;;;30.33;57.78;96762.47;2076015;28;20430;-68
2023/08/13 13:07:37;;;;;;;3.43;1.47;;;;;;;30.57;56.49;96771.25;2076138;28;20899;-68
2023/08/13 13:08:39;;;;;;;2.07;1.40;;;;;;;31.28;55.19;96775.81;2074699;28;20435;-67
2023/08/13 13:09:40;;;;;;;3.23;1.23;;;;;;;30.98;55.55;96781.34;2076703;28;20525;-67
2023/08/13 13:10:42;;;;;;;5.03;4.47;;;;;;;31.29;55.32;96784.72;2076433;28;20814;-68
2023/08/13 13:11:43;;;;;;;4.13;2.53;;;;;;;30.95;54.60;96785.28;2076340;28;20533;-68
2023/08/13 13:12:45;;;;;;;5.40;3.90;;;;;;;30.55;55.08;96784.94;2075734;28;20439;-68
2023/08/13 13:13:46;;;;;;;4.93;2.33;;;;;;;29.62;56.15;96782.72;2075928;28;20518;-67
2023/08/13 13:14:48;;;;;;;5.33;1.77;;;;;;;28.84;58.10;96785.63;2075736;28;20431;-66
2023/08/13 13:15:49;;;;;;;2.50;1.33;;;;;;;28.30;59.46;96782.97;2075478;28;20497;-66
2023/08/13 13:16:51;;;;;;;4.40;1.30;;;;;;;28.30;59.09;96782.97;2077180;28;20426;-66
2023/08/13 13:17:52;;;;;;;6.93;1.70;;;;;;;28.66;58.39;96782.41;2076063;28;20445;-66
2023/08/13 13:18:54;;;;;;;1.40;1.10;;;;;;;29.20;56.92;96781.44;2078663;28;20976;-66
2023/08/13 13:19:55;;;;;;;3.53;1.33;;;;;;;29.22;57.67;96776.72;2074919;28;20755;-66
2023/08/13 13:20:57;;;;;;;4.67;1.50;;;;;;;29.46;58.48;96782.91;2075376;28;20419;-66
2023/08/13 13:21:59;;;;;;;3.50;1.60;;;;;;;29.96;56.39;96780.50;2075068;28;20471;-66
2023/08/13 13:23:00;;;;;;;3.20;1.53;;;;;;;30.68;56.14;96776.13;2076019;28;20779;-66
2023/08/13 13:24:02;;;;;;;2.40;1.50;;;;;;;31.18;54.93;96784.25;2076805;28;20434;-67
2023/08/13 13:25:03;;;;;;;3.40;1.77;;;;;;;31.31;54.16;96778.09;2074648;28;20441;-67
2023/08/13 13:26:05;;;;;;;7.07;1.73;;;;;;;30.93;54.34;96781.09;2075818;28;20438;-67
2023/08/13 13:27:06;;;;;;;3.23;1.37;;;;;;;30.58;54.63;96781.00;2075652;28;20952;-67
2023/08/13 13:28:08;;;;;;;3.73;1.40;;;;;;;30.69;55.75;96787.72;2076559;28;20473;-66
2023/08/13 13:29:09;;;;;;;3.67;1.60;;;;;;;31.46;54.42;96779.88;2076310;28;20423;-66
2023/08/13 13:30:11;;;;;;;2.20;1.30;;;;;;;30.61;55.73;96784.16;2068340;28;20435;-66
2023/08/13 13:31:13;;;;;;;5.90;1.60;;;;;;;31.15;55.11;96770.31;2076983;28;20563;-66
2023/08/13 13:32:15;;;;;;;2.10;1.70;;;;;;;30.30;56.75;96779.03;2074466;28;20434;-66
2023/08/13 13:33:16;;;;;;;4.07;1.50;;;;;;;30.45;57.24;96784.38;2075563;28;20925;-66
2023/08/13 13:34:18;;;;;;;3.10;1.37;;;;;;;30.61;57.16;96783.31;2076855;28;20434;-66
2023/08/13 13:35:19;;;;;;;1.97;1.20;;;;;;;30.51;57.83;96778.22;2072254;28;20455;-66
2023/08/13 13:36:21;;;;;;;6.20;1.60;;;;;;;30.38;58.08;96783.47;2073250;28;20436;-66
2023/08/13 13:37:23;;;;;;;6.40;1.50;;;;;;;30.48;57.28;96783.19;2075906;28;20431;-66
2023/08/13 13:38:24;;;;;;;3.37;1.53;;;;;;;30.48;56.72;96783.19;2075300;28;20539;-66
2023/08/13 13:39:26;;;;;;;2.70;1.30;;;;;;;29.95;57.35;96782.38;2075186;28;20985;-66
2023/08/13 13:40:28;;;;;;;2.27;1.30;;;;;;;29.76;57.33;96783.75;2074620;28;20518;-66
2023/08/13 13:41:29;;;;;;;5.30;1.30;;;;;;;29.72;57.80;96785.13;2072160;28;20454;-67
2023/08/13 13:42:33;;;;;;;1.53;1.10;;;;;;;29.79;57.93;96786.06;2073271;28;20934;-67
2023/08/13 13:43:35;;;;;;;3.57;1.40;;;;;;;29.92;57.60;96785.41;2073858;28;20434;-66
2023/08/13 13:44:36;;;;;;;3.13;1.50;;;;;;;30.36;56.38;96780.13;2074380;28;20426;-67
2023/08/13 13:45:38;;;;;;;2.27;1.13;;;;;;;30.75;55.94;96779.72;2073643;28;21016;-67
2023/08/13 13:46:39;;;;;;;3.30;1.50;;;;;;;30.88;55.83;96781.72;2074046;28;20782;-67